TTPP/POS METAR and TAF weather

Enter ICAO airport designator
Station Type Date Time Source
TTPP METAR 2022/06/26 08:00 UTC NOAA

TTPP 260800Z 00000KT 9000 FEW016 25/23 Q1012 NOSIG


Station Type Date Time Source
TTPP Decoded METAR 2022/06/26 08:00 UTC NOAA

Piarco International Airport, Trinidad, Trinidad and Tobago (TTPP) 10-37N 061-21W 15M
Jun 26, 2022 - 04:00 AM EDT / 2022.06.26 0800 UTC
Wind: Calm:0
Visibility: 5 mile(s):0
Sky conditions: mostly clear
Temperature: 77 F (25 C)
Dew Point: 73 F (23 C)
Relative Humidity: 88%
Pressure (altimeter): 29.88 in. Hg (1012 hPa)
ob: TTPP 260800Z 00000KT 9000 FEW016 25/23 Q1012 NOSIG
cycle: 8

Station Type Date Time Source
TTPP TAF 2022/06/26 06:37 UTC NOAA

TAF TTPP 260400Z 2606/2706 00000KT 9000 SCT016
TEMPO 2606/2610 5000 SHRA BKN015
BECMG 2612/2614 08010KT 9000 SCT018
TEMPO 2612/2623 5000 SHRA FEW012CB BKN015 PROB40
TEMPO 2615/2621 08010G28KT 3000 TSRA FEW010CB BKN014
BECMG 2700/2702 00000KT 9999 FEW012CB SCT016

Example: see airport list